Time;durP1;ratioP1;P1;durP2;ratioP2;P2;SDS_P1;SDS_P2;PMS_P1;PMS_P2;Temp;Humidity;BMP_temperature;BMP_pressure;BME280_temperature;BME280_humidity;BME280_pressure;Samples;Min_cycle;Max_cycle;Signal;HPM_P1;HPM_P2
2020/12/30 00:00:39;;;;;;;4.97;2.45;;;;;;;4.94;78.51;95130.73;1676886;85;21704;-84
2020/12/30 00:03:05;;;;;;;6.70;3.42;;;;;;;4.95;78.68;95123.31;1677554;85;21339;-84
2020/12/30 00:05:31;;;;;;;7.05;4.25;;;;;;;4.92;78.56;95117.23;1674541;84;21529;-83
2020/12/30 00:07:57;;;;;;;6.70;3.65;;;;;;;4.98;78.59;95121.67;1676209;85;21111;-84
2020/12/30 00:10:23;;;;;;;22.70;13.00;;;;;;;5.01;78.51;95114.38;1675367;84;21125;-84
2020/12/30 00:12:50;;;;;;;51.70;23.60;;;;;;;5.07;78.42;95106.45;1650103;87;21367;-85
2020/12/30 00:15:16;;;;;;;8.05;3.72;;;;;;;5.08;78.41;95093.40;1648650;86;21183;-85
2020/12/30 00:17:42;;;;;;;11.22;4.80;;;;;;;5.06;78.37;95110.01;1711791;82;21293;-84
2020/12/30 00:20:12;;;;;;;1.85;1.20;;;;;;;5.05;78.54;95110.50;1709374;82;21256;-84
2020/12/30 00:22:40;;;;;;;1.55;0.80;;;;;;;5.04;78.67;95115.34;1719829;83;21158;-84
2020/12/30 00:25:06;;;;;;;2.08;0.80;;;;;;;4.99;78.55;95115.55;1696242;83;21293;-85
2020/12/30 00:27:33;;;;;;;1.50;0.90;;;;;;;5.00;78.57;95115.84;1712041;82;21123;-84
2020/12/30 00:30:00;;;;;;;1.07;0.80;;;;;;;5.04;78.57;95114.51;1710858;83;21636;-85
2020/12/30 00:32:26;;;;;;;1.90;1.15;;;;;;;5.03;78.35;95111.14;1711992;83;21126;-84
2020/12/30 00:34:52;;;;;;;1.70;1.20;;;;;;;4.97;78.33;95118.78;1714310;83;21236;-84
2020/12/30 00:37:19;;;;;;;2.40;1.10;;;;;;;4.93;78.36;95117.06;1695356;84;21502;-84
2020/12/30 00:39:45;;;;;;;1.50;1.20;;;;;;;4.86;78.36;95115.36;1711004;83;21333;-84
2020/12/30 00:42:11;;;;;;;2.25;1.42;;;;;;;4.82;78.47;95113.63;1708824;83;21122;-84
2020/12/30 00:44:37;;;;;;;3.47;1.92;;;;;;;4.79;78.35;95110.92;1713370;84;21967;-84
2020/12/30 00:47:03;;;;;;;3.37;1.80;;;;;;;4.75;78.37;95125.62;1698764;83;21114;-84
2020/12/30 00:49:29;;;;;;;3.37;2.00;;;;;;;4.74;78.28;95122.73;1713861;83;21114;-84
2020/12/30 00:51:57;;;;;;;2.47;1.80;;;;;;;4.76;78.45;95127.21;1714653;84;21226;-84
2020/12/30 00:54:23;;;;;;;4.35;2.85;;;;;;;4.68;78.56;95115.70;1714246;84;21146;-84
2020/12/30 00:56:50;;;;;;;3.75;2.20;;;;;;;4.60;78.62;95111.45;1715219;84;21130;-85
2020/12/30 00:59:16;;;;;;;3.52;2.20;;;;;;;4.58;78.61;95108.25;1715301;83;21094;-84
2020/12/30 01:01:43;;;;;;;4.58;4.15;;;;;;;4.61;78.87;95114.33;1715179;84;21229;-84
2020/12/30 01:04:09;;;;;;;3.40;1.75;;;;;;;4.68;78.92;95110.06;1710809;83;21126;-84
2020/12/30 01:06:35;;;;;;;2.42;1.60;;;;;;;4.74;78.69;95115.02;1712710;82;21441;-85
2020/12/30 01:09:01;;;;;;;6.30;3.83;;;;;;;4.80;78.80;95109.95;1713457;83;21235;-84
2020/12/30 01:11:28;;;;;;;3.67;2.08;;;;;;;4.84;79.17;95106.53;1710096;83;21577;-84
2020/12/30 01:13:56;;;;;;;3.75;2.60;;;;;;;4.88;78.74;95115.97;1708114;83;21336;-84
2020/12/30 01:16:23;;;;;;;5.37;3.75;;;;;;;4.91;78.53;95121.59;1708647;83;21133;-84
2020/12/30 01:18:49;;;;;;;4.78;2.45;;;;;;;4.95;78.72;95118.16;1709267;83;21276;-84
2020/12/30 01:21:16;;;;;;;4.53;2.62;;;;;;;4.98;78.61;95114.74;1712908;83;21138;-85
2020/12/30 01:23:42;;;;;;;3.62;2.77;;;;;;;5.01;78.54;95118.24;1710364;83;21253;-84
2020/12/30 01:26:10;;;;;;;4.45;3.62;;;;;;;5.04;78.40;95114.51;1684477;83;21324;-84
2020/12/30 01:28:36;;;;;;;4.03;2.55;;;;;;;5.06;78.41;95114.67;1710021;83;21396;-84
2020/12/30 01:31:03;;;;;;;2.02;1.80;;;;;;;5.08;78.49;95106.27;1704101;83;21080;-85
2020/12/30 01:33:29;;;;;;;14.78;12.98;;;;;;;5.12;78.30;95120.87;1718719;83;21302;-84
2020/12/30 01:35:55;;;;;;;4.90;3.15;;;;;;;5.20;78.18;95117.39;1714065;83;21254;-84
2020/12/30 01:38:21;;;;;;;3.62;2.30;;;;;;;5.26;77.87;95117.48;1714134;83;21114;-84
2020/12/30 01:40:47;;;;;;;7.25;4.20;;;;;;;5.33;77.60;95120.13;1713329;83;21103;-84
2020/12/30 01:43:14;;;;;;;6.53;3.90;;;;;;;5.36;77.78;95123.63;1679825;83;21114;-84
2020/12/30 01:45:40;;;;;;;7.10;4.85;;;;;;;5.31;77.82;95114.36;1714784;83;21108;-85
2020/12/30 01:48:16;;;;;;;6.00;3.87;;;;;;;5.33;77.89;95114.98;1716227;83;21103;-84
2020/12/30 01:50:42;;;;;;;4.62;2.55;;;;;;;5.32;77.48;95110.81;1716574;83;21213;-84
2020/12/30 01:53:09;;;;;;;6.92;4.28;;;;;;;5.37;77.51;95116.23;1712937;82;21091;-84
2020/12/30 01:55:40;;;;;;;2.72;2.20;;;;;;;5.40;77.55;95119.25;1713978;83;21138;-85
2020/12/30 01:58:10;;;;;;;4.62;3.35;;;;;;;5.42;77.40;95110.84;1713095;83;21104;-84
2020/12/30 02:00:37;;;;;;;4.85;3.30;;;;;;;5.48;77.24;95115.75;1689903;83;21076;-84
2020/12/30 02:03:04;;;;;;;6.45;3.98;;;;;;;5.52;77.33;95106.68;1720186;83;21080;-84
2020/12/30 02:05:30;;;;;;;4.33;3.17;;;;;;;5.55;77.40;95111.98;1713878;83;21130;-84
2020/12/30 02:08:01;;;;;;;6.78;3.83;;;;;;;5.59;77.34;95106.77;1720925;83;21301;-84
2020/12/30 02:10:27;;;;;;;5.45;4.42;;;;;;;5.62;77.11;95110.27;1718759;82;21253;-84
2020/12/30 02:12:56;;;;;;;6.33;3.65;;;;;;;5.58;76.97;95099.53;1709975;82;21126;-84
2020/12/30 02:15:30;;;;;;;4.85;3.10;;;;;;;5.57;77.05;95095.85;1699270;82;21350;-84
2020/12/30 02:17:57;;;;;;;6.67;4.50;;;;;;;5.52;76.77;95089.13;1680403;84;21123;-84
2020/12/30 02:20:23;;;;;;;3.75;2.58;;;;;;;5.46;77.12;95099.69;1678927;84;21458;-84
2020/12/30 02:23:04;;;;;;;5.80;3.37;;;;;;;5.41;76.91;95089.13;1682032;84;21152;-84
2020/12/30 02:25:30;;;;;;;4.80;3.20;;;;;;;5.41;76.92;95091.22;1680268;84;21373;-84
2020/12/30 02:27:56;;;;;;;4.05;2.90;;;;;;;5.44;77.10;95092.63;1680936;85;21270;-85
2020/12/30 02:30:22;;;;;;;5.53;3.02;;;;;;;5.45;77.00;95094.23;1681696;84;21277;-85
2020/12/30 02:32:50;;;;;;;4.97;3.05;;;;;;;5.41;77.00;95094.28;1691120;84;21139;-84
2020/12/30 02:35:16;;;;;;;4.00;3.02;;;;;;;5.36;77.06;95087.08;1655177;84;21373;-85
2020/12/30 02:37:42;;;;;;;2.85;2.27;;;;;;;5.32;77.05;95081.98;1680477;84;21310;-85
2020/12/30 02:40:08;;;;;;;3.55;2.47;;;;;;;5.31;76.87;95082.97;1686494;84;21135;-85
2020/12/30 02:42:34;;;;;;;4.20;3.17;;;;;;;5.31;76.82;95084.25;1684431;84;21092;-84
2020/12/30 02:45:05;;;;;;;19.80;7.97;;;;;;;5.34;76.91;95081.80;1674790;84;21167;-85
2020/12/30 02:47:33;;;;;;;4.85;2.25;;;;;;;5.36;76.94;95083.70;1677326;84;21107;-84
2020/12/30 02:50:00;;;;;;;5.67;3.20;;;;;;;5.37;77.05;95087.41;1686778;84;21068;-84
2020/12/30 02:52:26;;;;;;;12.37;5.95;;;;;;;5.35;76.66;95083.40;1679331;84;21119;-83
2020/12/30 02:54:52;;;;;;;4.72;2.60;;;;;;;5.40;76.74;95084.97;1675810;84;21191;-84
2020/12/30 02:57:19;;;;;;;4.55;2.25;;;;;;;5.41;76.94;95088.64;1672077;84;21173;-84
2020/12/30 02:59:45;;;;;;;2.10;1.90;;;;;;;5.36;76.91;95085.80;1687491;84;21131;-83
2020/12/30 03:02:11;;;;;;;3.35;2.12;;;;;;;5.34;76.68;95080.03;1689128;84;21144;-84
2020/12/30 03:04:38;;;;;;;4.50;1.52;;;;;;;5.35;76.94;95079.05;1688654;84;21123;-83
2020/12/30 03:07:04;;;;;;;4.08;1.92;;;;;;;5.34;77.32;95078.73;1686416;84;21871;-83
2020/12/30 03:09:30;;;;;;;3.20;2.20;;;;;;;5.35;76.82;95082.91;1681474;84;21120;-83
2020/12/30 03:11:56;;;;;;;4.35;1.35;;;;;;;5.37;76.94;95080.98;1680146;84;21280;-83
2020/12/30 03:14:22;;;;;;;5.58;3.17;;;;;;;5.40;76.58;95074.17;1681490;84;21313;-82
2020/12/30 03:16:49;;;;;;;4.00;1.80;;;;;;;5.46;76.84;95080.36;1707309;82;21137;-84
2020/12/30 03:19:15;;;;;;;3.87;2.35;;;;;;;5.48;76.92;95083.55;1711375;83;21138;-83
2020/12/30 03:21:41;;;;;;;5.60;3.80;;;;;;;5.48;76.81;95089.99;1710047;83;21237;-84
2020/12/30 03:24:07;;;;;;;10.23;5.45;;;;;;;5.51;76.64;95092.69;1706021;83;21589;-84
2020/12/30 03:26:35;;;;;;;11.57;5.65;;;;;;;5.52;76.47;95094.28;1687027;83;22359;-83
2020/12/30 03:29:01;;;;;;;11.30;5.03;;;;;;;5.46;76.44;95097.11;1704681;82;21340;-83
2020/12/30 03:31:31;;;;;;;7.83;4.17;;;;;;;5.46;76.61;95095.82;1704442;83;21248;-84
2020/12/30 03:33:57;;;;;;;10.85;5.35;;;;;;;5.42;76.56;95092.81;1714279;83;21139;-83
2020/12/30 03:36:24;;;;;;;6.50;3.95;;;;;;;5.36;76.42;95088.37;1712545;83;21086;-83
2020/12/30 03:38:50;;;;;;;4.50;3.08;;;;;;;5.29;76.71;95088.79;1714430;83;21131;-84
2020/12/30 03:41:17;;;;;;;2.62;1.70;;;;;;;5.26;76.77;95093.02;1712214;82;21463;-84
2020/12/30 03:43:43;;;;;;;2.70;1.95;;;;;;;5.23;76.55;95088.73;1709188;83;21119;-84
2020/12/30 03:46:10;;;;;;;3.95;2.33;;;;;;;5.27;76.64;95083.52;1721902;82;21138;-84
2020/12/30 03:48:36;;;;;;;2.52;1.90;;;;;;;5.26;76.87;95085.78;1719445;83;21133;-84
2020/12/30 03:51:02;;;;;;;3.05;1.67;;;;;;;5.22;76.86;95086.64;1719093;82;21127;-84
2020/12/30 03:53:29;;;;;;;3.27;1.60;;;;;;;5.23;76.95;95084.86;1712859;83;21110;-84
2020/12/30 03:55:55;;;;;;;2.10;1.72;;;;;;;5.20;77.34;95074.41;1713533;83;21325;-84
2020/12/30 03:58:21;;;;;;;2.92;2.60;;;;;;;5.12;77.31;95084.33;1718136;83;21583;-84
2020/12/30 04:00:47;;;;;;;2.35;1.50;;;;;;;5.06;77.33;95084.27;1717194;83;21110;-85
2020/12/30 04:03:13;;;;;;;3.10;1.92;;;;;;;5.02;77.47;95086.86;1699317;83;21091;-84
2020/12/30 04:05:39;;;;;;;3.77;1.80;;;;;;;4.96;77.51;95089.67;1718867;83;21142;-83
2020/12/30 04:08:05;;;;;;;2.70;1.80;;;;;;;4.90;77.66;95080.59;1715606;82;21103;-84
2020/12/30 04:10:31;;;;;;;2.75;2.10;;;;;;;4.83;77.84;95086.42;1714846;83;21099;-84
2020/12/30 04:12:57;;;;;;;3.35;1.90;;;;;;;4.77;77.88;95090.21;1719181;82;21099;-83
2020/12/30 04:15:23;;;;;;;2.40;1.87;;;;;;;4.74;78.01;95091.37;1706049;82;21107;-84
2020/12/30 04:17:49;;;;;;;2.75;1.50;;;;;;;4.74;78.01;95095.23;1706412;83;21145;-84
2020/12/30 04:20:15;;;;;;;3.05;1.70;;;;;;;4.72;78.08;95086.89;1721020;83;21127;-84
2020/12/30 04:22:41;;;;;;;2.55;1.70;;;;;;;4.70;78.23;95077.72;1711955;83;21138;-83
2020/12/30 04:25:07;;;;;;;3.00;1.72;;;;;;;4.69;78.24;95077.41;1710318;82;21350;-83
2020/12/30 04:27:34;;;;;;;3.67;1.82;;;;;;;4.69;78.10;95074.35;1716774;82;21248;-83
2020/12/30 04:30:00;;;;;;;3.80;2.20;;;;;;;4.67;78.15;95072.45;1712211;83;21091;-84
2020/12/30 04:32:26;;;;;;;2.05;1.80;;;;;;;4.63;78.19;95078.13;1706151;83;21979;-85
2020/12/30 04:34:52;;;;;;;3.25;1.70;;;;;;;4.61;78.24;95092.46;1720647;83;21139;-83
2020/12/30 04:37:18;;;;;;;2.75;1.72;;;;;;;4.61;78.31;95086.52;1711861;82;21374;-84
2020/12/30 04:39:44;;;;;;;3.55;1.85;;;;;;;4.59;78.29;95086.70;1720806;83;21389;-84
2020/12/30 04:42:10;;;;;;;2.92;1.90;;;;;;;4.59;78.29;95083.33;1713072;83;21260;-84
2020/12/30 04:44:39;;;;;;;2.42;2.00;;;;;;;4.57;78.39;95092.51;1717970;83;21269;-83
2020/12/30 04:47:05;;;;;;;3.40;2.00;;;;;;;4.52;78.44;95108.45;1694478;83;21086;-84
2020/12/30 04:49:31;;;;;;;2.35;2.12;;;;;;;4.53;78.57;95105.39;1716006;83;21072;-84
2020/12/30 04:51:58;;;;;;;12.63;8.38;;;;;;;4.50;78.65;95112.17;1694232;83;21135;-83
2020/12/30 04:54:24;;;;;;;12.75;10.35;;;;;;;4.46;78.23;95110.45;1721291;82;21400;-83
2020/12/30 04:57:02;;;;;;;16.02;10.85;;;;;;;4.40;78.10;95119.36;1706686;83;21138;-84
2020/12/30 04:59:32;;;;;;;14.70;11.35;;;;;;;4.39;78.20;95120.30;1709707;83;21146;-84
2020/12/30 05:02:12;;;;;;;17.45;12.30;;;;;;;4.37;78.33;95123.53;1706461;83;21957;-84
2020/12/30 05:04:39;;;;;;;16.20;12.37;;;;;;;4.34;78.41;95125.97;1719263;83;21114;-84
2020/12/30 05:07:13;;;;;;;17.27;11.12;;;;;;;4.30;78.50;95132.44;1711564;82;21106;-84
2020/12/30 05:09:41;;;;;;;15.63;11.22;;;;;;;4.31;78.58;95128.90;1714980;83;21110;-84
2020/12/30 05:12:13;;;;;;;17.77;10.93;;;;;;;4.31;78.56;95127.61;1683550;85;21115;-84
2020/12/30 05:14:40;;;;;;;15.25;10.43;;;;;;;4.34;78.51;95132.41;1709380;83;21481;-84
2020/12/30 05:17:11;;;;;;;11.10;8.18;;;;;;;4.35;78.52;95127.57;1706049;83;21102;-84
2020/12/30 05:19:37;;;;;;;8.40;6.55;;;;;;;4.33;78.58;95123.58;1701783;82;21579;-83
2020/12/30 05:22:04;;;;;;;7.47;5.40;;;;;;;4.28;78.69;95125.88;1701500;82;21129;-84
2020/12/30 05:24:31;;;;;;;3.90;3.40;;;;;;;4.24;79.15;95115.15;1704918;82;21117;-84
2020/12/30 05:26:58;;;;;;;7.72;4.90;;;;;;;4.22;79.26;95117.86;1697219;82;21105;-84
2020/12/30 05:29:28;;;;;;;10.18;7.25;;;;;;;4.29;79.22;95132.13;1697090;82;21254;-84
2020/12/30 05:31:54;;;;;;;11.90;8.33;;;;;;;4.34;79.35;95128.55;1711674;82;21282;-84
2020/12/30 05:34:22;;;;;;;12.40;9.55;;;;;;;4.34;79.16;95125.17;1702967;82;21115;-84
2020/12/30 05:36:51;;;;;;;13.72;10.93;;;;;;;4.35;79.27;95135.77;1704007;82;21337;-84
2020/12/30 05:39:31;;;;;;;24.50;18.50;;;;;;;4.33;79.33;95122.30;1705262;82;21922;-84
2020/12/30 05:42:17;;;;;;;16.55;12.18;;;;;;;4.34;79.24;95132.89;1711684;82;21152;-83
2020/12/30 05:44:45;;;;;;;15.05;12.23;;;;;;;4.32;79.71;95129.70;1714999;82;21135;-83
2020/12/30 05:47:15;;;;;;;12.60;9.70;;;;;;;4.14;79.22;95128.23;1702533;82;21107;-84
2020/12/30 05:49:42;;;;;;;16.10;11.75;;;;;;;4.10;79.66;95137.27;1709608;82;21099;-83
2020/12/30 05:52:20;;;;;;;13.70;11.18;;;;;;;4.05;79.70;95142.09;1681506;84;21082;-84
2020/12/30 05:54:53;;;;;;;12.43;11.05;;;;;;;4.01;79.96;95133.63;1690032;83;21127;-84
2020/12/30 05:57:31;;;;;;;14.50;10.40;;;;;;;3.96;79.65;95134.63;1718670;82;21527;-84
2020/12/30 05:59:59;;;;;;;11.93;9.70;;;;;;;3.99;79.69;95138.94;1711398;82;21099;-84
2020/12/30 06:02:28;;;;;;;11.48;8.15;;;;;;;4.06;79.80;95137.75;1709127;82;21269;-83
2020/12/30 06:04:55;;;;;;;14.63;10.10;;;;;;;4.07;79.60;95147.09;1708258;82;21096;-84
2020/12/30 06:07:23;;;;;;;18.00;12.80;;;;;;;4.11;79.91;95147.86;1706972;82;21126;-84
2020/12/30 06:09:53;;;;;;;14.85;11.45;;;;;;;4.14;79.80;95150.08;1705622;82;21269;-84
2020/12/30 06:12:25;;;;;;;15.23;12.03;;;;;;;4.15;79.64;95152.16;1703246;82;21114;-84
2020/12/30 06:14:51;;;;;;;;;;;;;;;4.14;79.72;95148.80;1685506;84;21162;-83
2020/12/30 06:17:27;;;;;;;16.52;12.03;;;;;;;4.18;79.64;95154.38;1711319;82;20166;-83
2020/12/30 06:19:53;;;;;;;13.35;10.35;;;;;;;4.20;79.53;95155.80;1713035;82;21119;-83
2020/12/30 06:22:21;;;;;;;10.60;8.40;;;;;;;4.26;79.57;95153.54;1717493;82;21137;-84
2020/12/30 06:24:55;;;;;;;10.98;7.37;;;;;;;4.28;79.45;95156.73;1709178;82;21091;-83
2020/12/30 06:27:24;;;;;;;7.17;6.03;;;;;;;4.31;79.57;95157.67;1711152;82;21532;-84
2020/12/30 06:29:53;;;;;;;5.28;4.22;;;;;;;4.33;79.52;95152.66;1721151;82;21094;-84
2020/12/30 06:32:33;;;;;;;4.37;3.20;;;;;;;4.30;79.51;95157.36;1709646;82;21226;-84
2020/12/30 06:35:01;;;;;;;3.72;2.55;;;;;;;4.26;79.52;95156.91;1653219;85;21108;-84
2020/12/30 06:37:28;;;;;;;3.98;2.47;;;;;;;4.26;79.58;95154.83;1667430;85;21353;-84
2020/12/30 06:40:19;;;;;;;4.10;2.30;;;;;;;4.26;79.57;95152.25;1663714;84;21136;-84
2020/12/30 06:42:46;;;;;;;3.42;1.80;;;;;;;4.25;79.63;95159.17;1666922;84;21195;-84
2020/12/30 06:45:14;;;;;;;4.00;1.65;;;;;;;4.24;79.83;95151.63;1713976;82;21126;-84
2020/12/30 06:48:00;;;;;;;2.62;1.45;;;;;;;4.24;80.02;95158.06;1710944;82;21767;-84
2020/12/30 06:50:26;;;;;;;3.50;1.70;;;;;;;4.26;80.05;95154.83;1720929;82;21092;-84
2020/12/30 06:52:53;;;;;;;2.72;1.60;;;;;;;4.33;80.08;95149.30;1724530;82;21103;-84
2020/12/30 06:55:45;;;;;;;2.35;1.57;;;;;;;4.40;80.09;95154.08;1717731;81;21237;-84
2020/12/30 06:58:49;;;;;;;1.75;1.52;;;;;;;4.45;80.19;95158.20;1709258;82;21242;-84
2020/12/30 07:01:22;;;;;;;1.52;1.32;;;;;;;4.48;80.24;95150.93;1710361;82;21328;-84
2020/12/30 07:03:49;;;;;;;3.05;1.60;;;;;;;4.52;80.31;95157.81;1694785;82;21375;-84
2020/12/30 07:06:28;;;;;;;2.85;1.42;;;;;;;4.55;80.38;95156.66;1713779;82;21452;-84
2020/12/30 07:08:58;;;;;;;2.35;1.40;;;;;;;4.59;80.33;95152.78;1715522;82;21999;-84
2020/12/30 07:11:52;;;;;;;2.20;1.30;;;;;;;4.68;80.32;95156.87;1831518;76;23000;-83
2020/12/30 07:14:27;;;;;;;2.42;1.35;;;;;;;4.71;80.33;95158.59;1799262;78;21090;-85
2020/12/30 07:17:00;;;;;;;3.58;1.45;;;;;;;4.76;80.29;95154.23;1822343;77;21705;-85
2020/12/30 07:19:29;;;;;;;2.72;1.50;;;;;;;4.80;80.21;95156.77;1819548;77;21112;-85
2020/12/30 07:22:10;;;;;;;2.25;1.10;;;;;;;4.89;80.14;95148.48;1821961;78;21131;-86
2020/12/30 07:24:56;;;;;;;1.70;1.25;;;;;;;4.92;80.15;95154.56;1818267;77;21104;-86
2020/12/30 07:27:28;;;;;;;2.70;1.25;;;;;;;4.96;80.02;95157.09;1815581;78;21222;-84
2020/12/30 07:29:54;;;;;;;1.50;1.27;;;;;;;5.03;79.92;95152.81;1816574;77;21450;-85
2020/12/30 07:32:23;;;;;;;2.10;1.30;;;;;;;5.03;79.86;95147.67;1817725;77;21277;-84
2020/12/30 07:34:50;;;;;;;1.30;1.20;;;;;;;5.01;79.88;95145.27;1815167;77;21131;-84
2020/12/30 07:37:17;;;;;;;2.40;1.20;;;;;;;5.02;79.92;95145.58;1816464;78;21121;-84
2020/12/30 07:39:44;;;;;;;2.42;1.20;;;;;;;5.00;79.96;95141.59;1822489;77;21507;-85
2020/12/30 07:42:16;;;;;;;2.25;1.32;;;;;;;4.98;79.99;95148.20;1815683;78;21130;-85
2020/12/30 07:44:55;;;;;;;1.95;1.20;;;;;;;5.00;80.01;95148.83;1822417;77;21096;-85
2020/12/30 07:47:24;;;;;;;2.77;1.40;;;;;;;5.04;79.95;95153.13;1792115;78;21340;-85
2020/12/30 07:49:50;;;;;;;2.45;1.35;;;;;;;5.06;79.99;95158.92;1820992;77;21115;-85
2020/12/30 07:52:16;;;;;;;1.70;1.50;;;;;;;5.07;80.02;95163.09;1810196;77;21119;-85
2020/12/30 07:54:42;;;;;;;3.30;1.32;;;;;;;5.07;80.13;95158.75;1818226;77;21245;-84
2020/12/30 07:57:11;;;;;;;2.90;1.47;;;;;;;5.06;80.20;95166.16;1811527;78;21138;-85
2020/12/30 07:59:47;;;;;;;2.45;1.30;;;;;;;5.06;80.26;95161.02;1815362;77;22211;-85
2020/12/30 08:02:15;;;;;;;1.65;1.20;;;;;;;5.09;80.26;95152.13;1812957;78;21094;-85
2020/12/30 08:04:42;;;;;;;2.25;1.20;;;;;;;5.15;80.30;95158.33;1818943;77;21135;-85
2020/12/30 08:07:12;;;;;;;1.45;1.32;;;;;;;5.21;80.23;95162.80;1817021;78;21068;-86
2020/12/30 08:09:43;;;;;;;2.80;1.62;;;;;;;5.23;80.23;95166.78;1817962;77;21225;-86
2020/12/30 08:12:13;;;;;;;3.65;1.90;;;;;;;5.25;80.32;95164.83;1737649;80;21161;-87
2020/12/30 08:14:42;;;;;;;2.58;1.37;;;;;;;5.23;80.27;95164.70;1772024;79;21105;-86
2020/12/30 08:17:13;;;;;;;1.50;1.37;;;;;;;5.32;80.26;95177.77;1739583;80;21118;-85
2020/12/30 08:19:46;;;;;;;8.40;4.97;;;;;;;5.37;80.09;95180.64;1803431;78;21122;-85
2020/12/30 08:22:27;;;;;;;2.60;2.27;;;;;;;5.40;79.90;95178.98;1811566;78;21111;-84
2020/12/30 08:24:57;;;;;;;2.83;1.75;;;;;;;5.45;79.99;95175.86;1810075;78;21263;-83
2020/12/30 08:27:28;;;;;;;3.87;2.98;;;;;;;5.43;80.09;95178.63;1809162;77;21119;-84
2020/12/30 08:29:54;;;;;;;5.80;4.75;;;;;;;5.36;80.14;95176.44;1808512;77;21117;-84
2020/12/30 08:32:35;;;;;;;13.05;9.80;;;;;;;5.27;80.14;95174.45;1816127;77;21762;-84
2020/12/30 08:35:18;;;;;;;11.45;7.97;;;;;;;5.24;80.00;95176.11;1816397;78;21138;-83
2020/12/30 08:37:46;;;;;;;15.85;11.60;;;;;;;5.25;80.09;95168.69;1808621;78;21287;-84
2020/12/30 08:40:24;;;;;;;28.85;21.85;;;;;;;5.26;80.03;95170.77;1806822;78;21246;-84
2020/12/30 08:42:56;;;;;;;27.15;19.10;;;;;;;5.24;79.89;95173.53;1813977;77;21060;-84
2020/12/30 08:45:34;;;;;;;34.30;21.35;;;;;;;5.21;80.02;95172.60;1804573;77;21107;-84
2020/12/30 08:48:17;;;;;;;30.08;20.25;;;;;;;5.22;80.04;95169.05;1799904;77;21114;-84
2020/12/30 08:50:43;;;;;;;27.58;19.87;;;;;;;5.23;80.05;95170.64;1810572;77;21116;-84
2020/12/30 08:53:09;;;;;;;33.75;22.73;;;;;;;5.26;79.79;95165.62;1780794;78;21338;-84
2020/12/30 08:55:38;;;;;;;31.35;21.97;;;;;;;5.25;79.85;95167.40;1810008;77;21206;-85
2020/12/30 08:58:04;;;;;;;36.15;25.02;;;;;;;5.28;79.70;95174.77;1811314;78;21396;-84
2020/12/30 09:00:37;;;;;;;33.90;23.07;;;;;;;5.28;79.23;95169.61;1810883;77;21421;-84
2020/12/30 09:03:12;;;;;;;31.57;23.20;;;;;;;5.26;79.45;95165.62;1795816;79;21214;-84
2020/12/30 09:05:39;;;;;;;34.35;23.75;;;;;;;5.26;79.57;95167.70;1803777;79;21295;-84
2020/12/30 09:08:14;;;;;;;31.97;22.85;;;;;;;5.28;79.46;95170.91;1796421;79;21082;-84
2020/12/30 09:10:41;;;;;;;26.93;19.62;;;;;;;5.31;79.41;95165.88;1802392;77;21131;-84
2020/12/30 09:13:22;;;;;;;27.20;20.08;;;;;;;5.34;79.34;95171.95;1792076;78;21108;-84
2020/12/30 09:15:57;;;;;;;30.37;20.43;;;;;;;5.35;79.26;95169.69;1799918;77;21137;-84
2020/12/30 09:18:24;;;;;;;29.20;17.90;;;;;;;5.40;79.34;95169.97;1779283;77;21245;-84
2020/12/30 09:20:51;;;;;;;26.35;17.65;;;;;;;5.36;79.25;95169.50;1800680;77;21119;-84
2020/12/30 09:23:22;;;;;;;20.12;14.15;;;;;;;5.37;79.63;95171.63;1794308;79;21123;-84
2020/12/30 09:25:49;;;;;;;17.27;11.48;;;;;;;5.35;79.72;95165.33;1805630;77;21114;-84
2020/12/30 09:28:25;;;;;;;15.75;10.32;;;;;;;5.36;79.83;95166.93;1787686;77;21102;-84
2020/12/30 09:30:53;;;;;;;16.35;10.55;;;;;;;5.38;79.97;95165.00;1809139;77;21111;-84
2020/12/30 09:33:21;;;;;;;14.93;9.95;;;;;;;5.45;79.93;95171.51;1787546;77;21220;-84
2020/12/30 09:35:47;;;;;;;12.68;9.65;;;;;;;5.47;80.02;95173.91;1788569;77;21104;-84
2020/12/30 09:38:20;;;;;;;11.30;8.53;;;;;;;5.47;80.24;95179.86;1796760;77;21076;-85
2020/12/30 09:40:49;;;;;;;10.85;7.42;;;;;;;5.45;80.69;95174.09;1744739;80;21330;-84
2020/12/30 09:43:20;;;;;;;7.50;5.28;;;;;;;5.49;80.88;95182.25;1800219;77;21254;-85
2020/12/30 09:45:59;;;;;;;7.50;4.83;;;;;;;5.52;80.89;95175.45;1761438;79;21265;-84
2020/12/30 09:48:26;;;;;;;8.88;5.75;;;;;;;5.57;81.07;95180.88;1795126;77;21160;-85
2020/12/30 09:50:52;;;;;;;8.80;5.53;;;;;;;5.60;81.36;95183.09;1806196;79;21115;-84
2020/12/30 09:53:19;;;;;;;8.45;6.40;;;;;;;5.64;81.40;95178.67;1811497;77;21100;-84
2020/12/30 09:55:51;;;;;;;8.85;5.67;;;;;;;5.63;81.48;95181.44;1805755;79;21131;-85
2020/12/30 09:58:22;;;;;;;76.00;49.58;;;;;;;5.65;81.63;95177.70;1763185;80;21100;-84
2020/12/30 10:01:01;;;;;;;;;;;;;;;;;;;;;
2020/12/30 10:03:33;;;;;;;84.42;57.50;;;;;;;5.62;80.34;95177.27;1819481;77;24272;-87
2020/12/30 10:06:05;;;;;;;86.20;58.47;;;;;;;5.49;80.07;95184.83;1795361;77;21109;-87
2020/12/30 10:08:35;;;;;;;72.72;51.25;;;;;;;5.43;80.19;95182.48;1779867;77;21141;-86
2020/12/30 10:11:07;;;;;;;60.95;43.02;;;;;;;5.37;80.29;95181.92;1793718;78;21294;-87
2020/12/30 10:13:41;;;;;;;68.87;47.90;;;;;;;5.35;80.33;95182.56;1768905;77;21105;-87
2020/12/30 10:16:23;;;;;;;;;;;;;;;;;;;;;
2020/12/30 10:18:57;;;;;;;;;;;;;;;;;;;;;
2020/12/30 10:21:17;;;;;;;33.67;22.10;;;;;;;5.39;80.51;95182.05;1763112;78;21162;-87
2020/12/30 10:23:44;;;;;;;38.50;26.07;;;;;;;5.42;80.60;95177.03;1815687;78;21062;-86
2020/12/30 10:26:10;;;;;;;36.25;26.82;;;;;;;5.34;80.59;95172.75;1811378;78;21103;-86
2020/12/30 10:28:36;;;;;;;36.95;27.25;;;;;;;5.26;80.87;95169.48;1810886;77;21096;-85
2020/12/30 10:31:02;;;;;;;55.15;38.53;;;;;;;5.26;81.16;95171.57;1802106;77;21286;-85
2020/12/30 10:33:28;;;;;;;53.75;38.35;;;;;;;5.33;81.37;95162.63;1814090;78;21103;-88
2020/12/30 10:35:54;;;;;;;58.68;40.33;;;;;;;5.40;81.23;95161.75;1811845;78;21086;-86
2020/12/30 10:38:20;;;;;;;49.58;38.13;;;;;;;5.47;81.23;95157.95;1754417;81;21282;-86
2020/12/30 10:40:47;;;;;;;45.15;34.65;;;;;;;5.52;81.26;95158.20;1748644;80;21101;-86
2020/12/30 10:43:15;;;;;;;49.58;38.35;;;;;;;5.58;81.08;95161.86;1756636;80;21105;-88
2020/12/30 10:45:41;;;;;;;58.68;45.73;;;;;;;5.59;81.04;95158.30;1773302;79;21102;-87
2020/12/30 10:48:16;;;;;;;64.92;49.13;;;;;;;5.61;81.10;95155.05;1711977;81;21125;-88
2020/12/30 10:50:37;;;;;;;64.97;46.48;;;;;;;5.61;80.93;95155.05;1724138;81;21106;-87
2020/12/30 10:53:03;;;;;;;61.50;45.50;;;;;;;5.63;81.03;95159.53;1761748;80;21314;-86
2020/12/30 10:55:29;;;;;;;70.92;53.28;;;;;;;5.64;80.99;95155.48;1731215;81;21208;-87
2020/12/30 10:57:55;;;;;;;78.12;58.45;;;;;;;5.65;80.81;95155.80;1747706;80;21748;-87
2020/12/30 11:00:21;;;;;;;77.22;58.60;;;;;;;5.63;80.61;95158.25;1743824;80;21239;-87
2020/12/30 11:02:47;;;;;;;81.25;62.98;;;;;;;5.61;80.64;95160.20;1727953;81;21113;-86
2020/12/30 11:05:14;;;;;;;74.77;60.83;;;;;;;5.63;80.76;95156.47;1728763;81;21217;-86
2020/12/30 11:07:40;;;;;;;71.92;54.33;;;;;;;5.63;80.69;95158.25;1726011;82;21103;-88
2020/12/30 11:10:07;;;;;;;66.92;51.50;;;;;;;5.57;80.73;95153.34;1735443;81;21217;-86
2020/12/30 11:12:36;;;;;;;73.22;56.88;;;;;;;5.61;80.78;95155.05;1733782;81;21102;-87
2020/12/30 11:15:06;;;;;;;70.10;55.88;;;;;;;5.63;80.59;95158.25;1718385;82;21325;-87
2020/12/30 11:17:33;;;;;;;75.17;58.17;;;;;;;5.59;80.53;95151.86;1720726;81;21098;-86
2020/12/30 11:19:59;;;;;;;78.97;61.18;;;;;;;5.57;80.75;95148.67;1724037;81;21126;-86
2020/12/30 11:22:26;;;;;;;69.05;54.53;;;;;;;5.61;80.82;95148.61;1718094;81;21091;-86
2020/12/30 11:24:52;;;;;;;78.02;57.40;;;;;;;5.61;80.73;95151.98;1718192;81;21368;-86
2020/12/30 11:27:18;;;;;;;85.60;61.90;;;;;;;5.60;80.66;95150.88;1713138;81;21313;-86
2020/12/30 11:29:44;;;;;;;75.80;59.98;;;;;;;5.56;80.64;95153.03;1717974;81;21115;-86
2020/12/30 11:32:10;;;;;;;85.12;64.42;;;;;;;5.52;80.70;95149.19;1736100;83;21163;-86
2020/12/30 11:34:36;;;;;;;76.90;61.35;;;;;;;5.53;80.98;95153.39;1735985;81;21087;-87
2020/12/30 11:37:02;;;;;;;77.53;55.58;;;;;;;5.56;80.96;95149.16;1706009;81;21099;-86
2020/12/30 11:39:28;;;;;;;69.35;47.62;;;;;;;5.57;80.87;95155.11;1729065;81;21119;-86
2020/12/30 11:41:54;;;;;;;60.40;44.40;;;;;;;5.57;80.69;95158.98;1690757;82;21325;-86
2020/12/30 11:44:20;;;;;;;54.45;38.00;;;;;;;5.57;80.70;95158.98;1736331;81;21102;-86
2020/12/30 11:46:51;;;;;;;65.42;41.98;;;;;;;5.46;80.52;95150.41;1736122;81;21228;-86